Time;durP1;ratioP1;P1;durP2;ratioP2;P2;SDS_P1;SDS_P2;PMS_P1;PMS_P2;Temp;Humidity;BMP_temperature;BMP_pressure;BME280_temperature;BME280_humidity;BME280_pressure;Samples;Min_cycle;Max_cycle;Signal;HPM_P1;HPM_P2
2022/12/17 13:12:11;;;;;;;118.40;46.10;;;;;;;-4.09;89.92;99197.20;419628;1302;99233;-40
2022/12/17 13:32:44;;;;;;;136.30;50.40;;;;;;;-4.30;89.85;99224.19;419679;1294;99275;-40
2022/12/17 13:42:52;;;;;;;110.50;40.00;;;;;;;-4.41;89.88;99235.34;419573;1289;111569;-41
2022/12/17 13:53:09;;;;;;;111.10;48.20;;;;;;;-4.45;89.84;99252.58;419762;1302;108735;-40
2022/12/17 14:03:18;;;;;;;136.50;46.00;;;;;;;-4.50;89.95;99265.71;419833;1294;99260;-41
2022/12/17 14:13:42;;;;;;;134.00;45.10;;;;;;;-4.64;89.78;99281.71;419675;1303;108641;-40
2022/12/17 14:23:52;;;;;;;95.00;39.10;;;;;;;-4.83;89.61;99300.59;419803;1299;98002;-39
2022/12/17 14:44:06;;;;;;;123.00;43.70;;;;;;;-4.88;89.87;99336.75;419351;1295;412126;-40
2022/12/17 14:54:18;;;;;;;152.70;49.60;;;;;;;-5.01;89.85;99343.89;419685;1303;98067;-39
2022/12/17 15:04:25;;;;;;;135.50;50.50;;;;;;;-5.15;89.84;99363.46;419762;1294;110720;-40
2022/12/17 15:14:33;;;;;;;127.00;48.40;;;;;;;-5.14;90.04;99380.77;419546;1302;108352;-40
2022/12/17 15:24:40;;;;;;;104.50;42.00;;;;;;;-5.15;89.94;99389.13;419739;1303;99342;-40
2022/12/17 15:34:48;;;;;;;125.90;45.60;;;;;;;-5.27;90.11;99403.17;419663;1289;108543;-40
2022/12/17 15:44:55;;;;;;;105.60;36.60;;;;;;;-5.38;90.36;99413.27;419684;1303;99316;-41
2022/12/17 15:55:01;;;;;;;104.20;36.10;;;;;;;-5.31;90.05;99421.34;419499;1300;110776;-40
2022/12/17 16:05:11;;;;;;;98.60;41.00;;;;;;;-5.26;90.09;99440.60;419452;1303;108582;-40
2022/12/17 16:15:16;;;;;;;;;;;;;;;-5.20;90.14;99444.98;419619;1300;98061;-40
2022/12/17 16:25:24;;;;;;;122.60;48.70;;;;;;;-5.19;90.33;99450.40;419592;1296;108030;-40
2022/12/17 16:35:31;;;;;;;118.30;42.70;;;;;;;-5.19;90.56;99456.63;419567;1297;99131;-40
2022/12/17 16:45:46;;;;;;;106.30;41.40;;;;;;;-5.21;90.57;99462.92;419486;1294;110612;-42
2022/12/17 16:55:53;;;;;;;109.30;43.20;;;;;;;-5.10;90.51;99474.48;419420;1303;106692;-41
2022/12/17 17:06:02;;;;;;;103.90;40.60;;;;;;;-4.98;90.71;99489.09;419406;1303;98946;-40
2022/12/17 17:16:11;;;;;;;116.40;39.90;;;;;;;-4.85;90.58;99494.73;419477;1292;108719;-40
2022/12/17 17:26:18;;;;;;;117.50;47.30;;;;;;;-4.87;90.82;99505.85;419526;1294;98408;-40
2022/12/17 17:36:28;;;;;;;124.80;48.30;;;;;;;-4.90;90.89;99520.35;419436;1302;111458;-39
2022/12/17 17:46:36;;;;;;;104.70;39.10;;;;;;;-4.86;90.94;99535.59;419504;1296;106805;-38
2022/12/17 17:56:43;;;;;;;95.40;41.40;;;;;;;-4.76;90.83;99548.21;419432;1302;99401;-40
2022/12/17 18:06:51;;;;;;;90.40;40.40;;;;;;;-4.65;91.02;99561.73;419484;1303;108308;-39
2022/12/17 18:27:25;;;;;;;111.90;45.30;;;;;;;-4.58;91.27;99581.34;419491;1303;110668;-40
2022/12/17 18:37:32;;;;;;;107.30;43.90;;;;;;;-4.66;91.15;99584.67;419410;1288;107162;-41
2022/12/17 18:47:41;;;;;;;101.50;44.10;;;;;;;-4.66;91.29;99599.48;419402;1294;99320;-40
2022/12/17 18:57:48;;;;;;;72.80;34.10;;;;;;;-4.62;91.19;99621.70;419298;1303;107301;-41
2022/12/17 19:07:56;;;;;;;70.70;32.20;;;;;;;-4.57;91.23;99639.39;419290;1296;98398;-41
2022/12/17 19:18:03;;;;;;;103.50;39.80;;;;;;;-4.69;91.12;99649.89;419483;1303;110822;-39
2022/12/17 19:28:10;;;;;;;69.20;25.70;;;;;;;-4.89;91.02;99674.02;419523;1302;109627;-40
2022/12/17 19:38:17;;;;;;;55.20;26.80;;;;;;;-4.99;90.81;99683.96;419255;1303;99345;-40
2022/12/17 19:48:24;;;;;;;48.50;23.70;;;;;;;-5.01;90.79;99697.86;419360;1304;111279;-41
2022/12/17 19:58:32;;;;;;;65.10;25.10;;;;;;;-5.02;90.79;99710.66;419352;1303;108440;-39
2022/12/17 20:08:39;;;;;;;80.60;31.60;;;;;;;-5.13;90.83;99719.70;419342;1297;99194;-39
2022/12/17 20:18:47;;;;;;;65.90;24.60;;;;;;;-5.26;90.94;99744.78;419410;1294;109750;-40
2022/12/17 20:28:56;;;;;;;53.90;22.70;;;;;;;-5.26;90.65;99764.71;419353;1294;98842;-42
2022/12/17 20:39:04;;;;;;;45.80;22.30;;;;;;;-5.24;90.74;99782.81;419399;1304;110242;-39
2022/12/17 20:49:13;;;;;;;53.10;23.30;;;;;;;-5.19;90.97;99802.81;419384;1302;107616;-39
2022/12/17 21:09:27;;;;;;;53.10;22.90;;;;;;;-5.21;91.21;99817.15;419379;1296;111400;-41
2022/12/17 21:19:34;;;;;;;60.60;21.90;;;;;;;-5.13;91.08;99824.55;419386;1299;107896;-41
2022/12/17 21:29:42;;;;;;;52.00;22.40;;;;;;;-5.01;91.14;99831.33;419932;1293;99284;-41
2022/12/17 21:39:49;;;;;;;80.60;31.10;;;;;;;-4.89;91.04;99838.94;419964;1303;107063;-40
2022/12/17 21:49:54;;;;;;;77.30;27.90;;;;;;;-4.87;91.08;99861.69;419855;1294;99232;-40
2022/12/17 22:00:01;;;;;;;64.00;24.70;;;;;;;-4.89;91.16;99873.87;419855;1303;110893;-40
2022/12/17 22:10:10;;;;;;;59.10;25.60;;;;;;;-4.85;91.09;99887.05;419742;1303;108579;-42
2022/12/17 22:20:37;;;;;;;62.00;26.10;;;;;;;-4.75;90.95;99893.75;419708;1299;98534;-40
2022/12/17 22:51:39;;;;;;;55.30;23.30;;;;;;;-4.70;91.35;99903.20;419701;1294;98883;-40
2022/12/17 23:01:48;;;;;;;56.70;24.90;;;;;;;-4.73;91.14;99909.77;419615;1291;112017;-39
2022/12/17 23:11:55;;;;;;;96.00;38.90;;;;;;;-4.63;91.10;99926.52;419509;1303;108488;-40
2022/12/17 23:22:02;;;;;;;78.90;34.30;;;;;;;-4.50;91.34;99934.91;419522;1298;98096;-40
2022/12/17 23:32:09;;;;;;;85.20;30.30;;;;;;;-4.47;91.38;99947.60;419733;1290;107315;-39
2022/12/17 23:42:16;;;;;;;85.90;34.40;;;;;;;-4.55;91.21;99959.04;419658;1302;98861;-39
2022/12/17 23:52:24;;;;;;;56.40;26.90;;;;;;;-4.63;91.20;99971.05;419573;1297;111428;-41
